Glenburnie, Maryland
Current Conditions -  °F | °C
As of 7:54 AM on Friday 24 Oct 2014 (Local Time) from KBWI Reporting Station
Scattered Clouds Scattered Clouds  
Wind Chill: 52°   Ceiling: Unl
Heat Index: 52°   Visibility: 10mi
Dew Point: 43°   Wind: 6mph
Humidity: 71%   Direction: 280°W
Pressure: 29.94"   Gusts: NA
Location:  39.1648°N, 76.6418°W
Report Text: KBWI 241154Z 28005KT 10SM FEW045 SCT250 11/06 A2994 RMK AO2 SLP136 T01110061 10133 20106 51015
Loading
Personal Weather Stations






























Interactive Weather Map New forecast layout! Learn more

10-Day Weather Forecast

Advertisements
Track Severe Weather on mobile